Time;durP1;ratioP1;P1;durP2;ratioP2;P2;SDS_P1;SDS_P2;PMS_P1;PMS_P2;Temp;Humidity;BMP_temperature;BMP_pressure;BME280_temperature;BME280_humidity;BME280_pressure;Samples;Min_cycle;Max_cycle;Signal;HPM_P1;HPM_P2
2021/05/18 00:01:57;;;;;;;2.85;0.85;;;;;;;;;;4978530;28;20393;-80
2021/05/18 00:04:22;;;;;;;2.15;0.60;;;;;;;;;;4978255;28;20483;-80
2021/05/18 00:06:49;;;;;;;1.65;0.70;;;;;;;;;;4978318;28;20461;-80
2021/05/18 00:11:58;;;;;;;3.28;0.70;;;;;;;;;;4996590;28;20041;-80
2021/05/18 00:14:24;;;;;;;2.83;0.88;;;;;;;;;;4994690;28;20168;-79
2021/05/18 00:16:51;;;;;;;1.95;0.70;;;;;;;;;;4978210;28;20106;-80
2021/05/18 00:19:16;;;;;;;2.72;0.90;;;;;;;;;;4978266;28;20061;-77
2021/05/18 00:21:41;;;;;;;2.13;0.60;;;;;;;;;;4994421;28;20559;-78
2021/05/18 00:24:07;;;;;;;3.35;0.65;;;;;;;;;;4977668;28;20033;-78
2021/05/18 00:26:33;;;;;;;3.75;1.15;;;;;;;;;;4994416;28;20038;-78
2021/05/18 00:28:59;;;;;;;3.80;1.08;;;;;;;;;;4977916;28;20041;-78
2021/05/18 00:31:24;;;;;;;3.13;0.82;;;;;;;;;;4994917;28;20052;-78
2021/05/18 00:33:50;;;;;;;2.47;0.70;;;;;;;;;;4994576;28;20032;-78
2021/05/18 00:36:15;;;;;;;1.75;0.73;;;;;;;;;;4974624;28;20404;-78
2021/05/18 00:38:41;;;;;;;2.47;0.80;;;;;;;;;;4995411;28;20127;-77
2021/05/18 00:41:10;;;;;;;1.67;0.80;;;;;;;;;;4978836;28;20408;-80
2021/05/18 00:43:36;;;;;;;2.33;0.80;;;;;;;;;;4994781;28;20041;-80
2021/05/18 00:46:01;;;;;;;1.35;0.57;;;;;;;;;;4978992;28;20065;-80
2021/05/18 00:48:27;;;;;;;2.15;0.80;;;;;;;;;;4978412;28;20492;-80
2021/05/18 00:51:00;;;;;;;2.33;0.82;;;;;;;;;;4978612;28;20133;-80
2021/05/18 00:53:26;;;;;;;1.98;0.73;;;;;;;;;;4994500;28;20030;-79
2021/05/18 00:58:26;;;;;;;1.23;0.60;;;;;;;;;;4994559;28;20026;-78
2021/05/18 01:01:16;;;;;;;3.25;0.93;;;;;;;;;;5011520;28;20053;-78
2021/05/18 01:03:42;;;;;;;3.60;1.25;;;;;;;;;;5014172;28;20496;-78
2021/05/18 01:08:55;;;;;;;3.63;1.33;;;;;;;;;;5000100;28;20026;-78
2021/05/18 01:11:23;;;;;;;2.65;0.88;;;;;;;;;;5013847;28;20069;-79
2021/05/18 01:13:49;;;;;;;2.97;0.90;;;;;;;;;;4997512;28;20056;-78
2021/05/18 01:16:15;;;;;;;2.80;0.88;;;;;;;;;;4997306;28;20500;-78
2021/05/18 01:18:43;;;;;;;3.75;0.95;;;;;;;;;;4981725;28;20038;-78
2021/05/18 01:21:09;;;;;;;4.10;1.00;;;;;;;;;;4981675;28;20042;-78
2021/05/18 01:23:34;;;;;;;2.80;1.65;;;;;;;;;;4997047;28;20026;-78
2021/05/18 01:26:00;;;;;;;2.92;1.20;;;;;;;;;;4981369;28;20030;-78
2021/05/18 01:28:26;;;;;;;3.63;0.88;;;;;;;;;;4980824;28;20069;-78
2021/05/18 01:30:54;;;;;;;4.53;1.00;;;;;;;;;;4997788;28;20041;-78
2021/05/18 01:33:20;;;;;;;2.15;0.75;;;;;;;;;;4973295;28;20034;-78
2021/05/18 01:35:45;;;;;;;3.35;1.20;;;;;;;;;;4962979;28;20049;-78
2021/05/18 01:38:14;;;;;;;3.03;1.00;;;;;;;;;;4980860;28;20092;-78
2021/05/18 01:43:12;;;;;;;4.70;1.40;;;;;;;;;;5013246;28;20031;-78
2021/05/18 01:45:37;;;;;;;3.13;0.90;;;;;;;;;;5013707;28;20052;-78
2021/05/18 01:48:07;;;;;;;3.63;1.40;;;;;;;;;;4981023;28;20037;-78
2021/05/18 01:50:32;;;;;;;3.10;0.88;;;;;;;;;;4980388;28;20044;-78
2021/05/18 01:52:58;;;;;;;3.83;0.82;;;;;;;;;;4996766;28;20034;-78
2021/05/18 01:58:01;;;;;;;2.72;1.13;;;;;;;;;;5012902;28;20060;-78
2021/05/18 02:00:29;;;;;;;3.63;0.90;;;;;;;;;;4980466;28;20496;-78
2021/05/18 02:02:55;;;;;;;2.67;1.17;;;;;;;;;;4980434;28;20534;-78
2021/05/18 02:05:21;;;;;;;4.40;1.50;;;;;;;;;;4996913;28;20117;-78
2021/05/18 02:07:47;;;;;;;2.38;1.20;;;;;;;;;;4980811;28;20130;-78
2021/05/18 02:10:17;;;;;;;4.88;1.08;;;;;;;;;;4996762;28;20050;-78
2021/05/18 02:12:43;;;;;;;4.95;1.08;;;;;;;;;;4979802;28;20092;-78
2021/05/18 02:26:23;;;;;;;4.65;1.48;;;;;;;;;;4982932;28;20043;-78
2021/05/18 02:28:49;;;;;;;6.55;1.42;;;;;;;;;;5029027;28;20041;-78
2021/05/18 02:31:15;;;;;;;4.43;2.08;;;;;;;;;;4996456;28;20407;-78
2021/05/18 02:33:42;;;;;;;3.45;1.10;;;;;;;;;;4996315;28;20061;-79
2021/05/18 02:36:08;;;;;;;6.43;1.65;;;;;;;;;;4996604;28;20111;-78
2021/05/18 02:38:34;;;;;;;3.75;1.35;;;;;;;;;;4996009;28;20033;-78
2021/05/18 02:40:59;;;;;;;5.57;1.35;;;;;;;;;;4995938;28;20480;-78
2021/05/18 02:43:35;;;;;;;5.03;1.40;;;;;;;;;;4979799;28;20107;-79
2021/05/18 02:49:13;;;;;;;4.60;1.17;;;;;;;;;;4991806;28;20496;-79
2021/05/18 02:51:43;;;;;;;4.45;1.02;;;;;;;;;;5001727;28;20041;-83
2021/05/18 02:54:09;;;;;;;4.88;1.25;;;;;;;;;;4979694;28;20497;-84
2021/05/18 02:59:20;;;;;;;3.33;1.10;;;;;;;;;;4997555;28;20061;-82
2021/05/18 03:01:50;;;;;;;5.10;1.38;;;;;;;;;;4981110;28;20038;-81
2021/05/18 03:04:16;;;;;;;3.42;1.20;;;;;;;;;;4978982;28;20030;-80
2021/05/18 03:06:41;;;;;;;5.18;1.73;;;;;;;;;;4979302;28;20416;-80
2021/05/18 03:09:14;;;;;;;5.13;1.33;;;;;;;;;;4995493;28;20034;-81
2021/05/18 03:11:39;;;;;;;;;;;;;;;;;;4981474;28;20034;-80
2021/05/18 03:14:06;;;;;;;3.95;1.10;;;;;;;;;;4994789;28;19927;-80
2021/05/18 03:16:32;;;;;;;6.80;1.80;;;;;;;;;;4979070;28;20038;-80
2021/05/18 03:18:57;;;;;;;5.03;1.38;;;;;;;;;;4995304;28;20046;-80
2021/05/18 03:21:23;;;;;;;3.28;1.15;;;;;;;;;;4994592;28;20045;-80
2021/05/18 03:23:48;;;;;;;3.83;1.25;;;;;;;;;;4994960;28;20124;-80
2021/05/18 03:26:13;;;;;;;3.72;0.98;;;;;;;;;;4995248;28;20032;-80
2021/05/18 03:28:39;;;;;;;3.03;1.10;;;;;;;;;;4978729;28;20034;-80
2021/05/18 03:36:14;;;;;;;4.25;1.38;;;;;;;;;;4997877;28;20116;-79
2021/05/18 03:38:43;;;;;;;3.83;1.33;;;;;;;;;;4995220;28;20096;-79
2021/05/18 03:41:13;;;;;;;3.90;1.15;;;;;;;;;;4996127;28;20045;-79
2021/05/18 04:04:29;;;;;;;3.08;1.42;;;;;;;;;;5010831;28;20042;-79
2021/05/18 04:49:53;;;;;;;3.78;1.02;;;;;;;;;;4999366;28;20080;-79
2021/05/18 04:52:25;;;;;;;3.95;1.23;;;;;;;;;;4981619;28;20037;-79
2021/05/18 05:00:47;;;;;;;5.15;1.33;;;;;;;;;;4995859;28;20499;-78
2021/05/18 05:09:57;;;;;;;4.20;1.30;;;;;;;;;;5102867;27;20400;-76
2021/05/18 05:14:53;;;;;;;5.55;1.50;;;;;;;;;;5085340;28;20058;-76
2021/05/18 05:17:19;;;;;;;7.53;1.50;;;;;;;;;;5070447;28;20043;-77
2021/05/18 05:19:44;;;;;;;9.13;1.50;;;;;;;;;;5087778;28;20035;-77
2021/05/18 05:22:10;;;;;;;5.10;1.60;;;;;;;;;;5077375;28;20040;-77
2021/05/18 05:24:37;;;;;;;6.15;1.63;;;;;;;;;;5082350;28;20107;-76
2021/05/18 05:27:03;;;;;;;8.73;2.28;;;;;;;;;;5071736;28;20110;-76
2021/05/18 05:29:28;;;;;;;5.15;1.52;;;;;;;;;;5026441;28;20511;-76
2021/05/18 05:31:55;;;;;;;5.93;2.08;;;;;;;;;;5073186;28;20069;-77
2021/05/18 05:34:20;;;;;;;4.10;1.20;;;;;;;;;;5066510;28;20100;-76
2021/05/18 05:36:46;;;;;;;4.38;1.98;;;;;;;;;;5050617;28;20055;-76
2021/05/18 05:39:34;;;;;;;5.60;1.33;;;;;;;;;;5033859;28;20037;-76
2021/05/18 05:41:58;;;;;;;3.85;1.55;;;;;;;;;;5049993;28;20049;-76
2021/05/18 05:44:24;;;;;;;4.25;1.90;;;;;;;;;;5064426;28;20066;-76
2021/05/18 05:46:49;;;;;;;5.95;1.60;;;;;;;;;;5050888;28;20399;-77
2021/05/18 05:49:15;;;;;;;4.40;1.50;;;;;;;;;;5081463;28;20511;-76
2021/05/18 05:51:40;;;;;;;5.43;1.73;;;;;;;;;;5033102;28;20040;-77
2021/05/18 05:54:06;;;;;;;6.47;1.90;;;;;;;;;;5054114;28;20403;-77
2021/05/18 05:56:32;;;;;;;6.15;1.98;;;;;;;;;;5083303;28;20032;-77
2021/05/18 05:59:02;;;;;;;5.38;1.88;;;;;;;;;;5068083;28;20024;-76
2021/05/18 06:01:31;;;;;;;5.63;1.90;;;;;;;;;;5067275;28;20507;-77
2021/05/18 06:03:56;;;;;;;4.10;1.50;;;;;;;;;;5050568;28;20038;-76
2021/05/18 06:06:22;;;;;;;4.82;2.33;;;;;;;;;;5066355;28;20125;-76
2021/05/18 06:08:48;;;;;;;6.38;2.95;;;;;;;;;;5033454;28;20068;-76
2021/05/18 06:11:21;;;;;;;7.00;2.05;;;;;;;;;;5049521;28;20409;-76
2021/05/18 06:14:03;;;;;;;10.63;2.97;;;;;;;;;;5068438;28;20033;-76
2021/05/18 06:46:16;;;;;;;6.28;2.30;;;;;;;;;;5063133;28;20128;-76
2021/05/18 06:48:42;;;;;;;3.97;1.45;;;;;;;;;;5063935;28;20048;-76
2021/05/18 06:51:07;;;;;;;4.60;1.98;;;;;;;;;;5082705;28;20511;-76
2021/05/18 06:53:33;;;;;;;8.13;2.53;;;;;;;;;;5032709;28;20122;-76
2021/05/18 06:55:59;;;;;;;7.40;2.05;;;;;;;;;;5065059;28;20103;-76
2021/05/18 07:00:06;;;;;;;5.20;1.52;;;;;;;;;;5065263;28;20036;-76
2021/05/18 07:01:17;;;;;;;5.47;1.60;;;;;;;;;;5080363;28;20033;-76
2021/05/18 07:03:52;;;;;;;7.07;2.63;;;;;;;;;;5052462;28;20086;-76
2021/05/18 07:08:58;;;;;;;5.03;2.00;;;;;;;;;;5037093;28;20140;-77
2021/05/18 07:11:24;;;;;;;5.35;1.98;;;;;;;;;;5033172;28;20475;-77
2021/05/18 07:13:50;;;;;;;8.10;2.08;;;;;;;;;;5050384;28;20103;-77
2021/05/18 07:16:20;;;;;;;8.80;2.10;;;;;;;;;;5033981;28;20115;-78
2021/05/18 07:18:50;;;;;;;4.20;1.63;;;;;;;;;;5048381;28;20044;-78
2021/05/18 07:21:16;;;;;;;4.60;2.00;;;;;;;;;;5051734;28;20491;-78
2021/05/18 07:23:44;;;;;;;4.93;1.50;;;;;;;;;;5017868;28;20399;-78
2021/05/18 07:26:12;;;;;;;6.50;2.88;;;;;;;;;;5034351;28;20037;-78
2021/05/18 07:28:38;;;;;;;4.75;2.42;;;;;;;;;;5027740;28;20124;-78
2021/05/18 07:31:04;;;;;;;6.53;1.80;;;;;;;;;;5033943;28;20111;-78
2021/05/18 07:33:29;;;;;;;5.85;1.80;;;;;;;;;;5064179;28;20041;-78
2021/05/18 07:36:01;;;;;;;6.28;1.80;;;;;;;;;;5068917;28;20547;-78
2021/05/18 07:38:26;;;;;;;5.72;1.70;;;;;;;;;;5035511;28;20049;-78
2021/05/18 07:40:52;;;;;;;6.47;1.77;;;;;;;;;;5032195;28;20037;-79
2021/05/18 07:43:18;;;;;;;5.57;2.03;;;;;;;;;;5050700;28;20111;-78
2021/05/18 07:45:49;;;;;;;5.35;2.08;;;;;;;;;;5034608;28;20029;-77
2021/05/18 07:48:41;;;;;;;4.78;1.90;;;;;;;;;;5033991;28;20025;-78
2021/05/18 08:07:13;;;;;;;4.95;1.65;;;;;;;;;;5035827;28;20075;-82
2021/05/18 08:12:19;;;;;;;4.50;1.90;;;;;;;;;;5063769;28;20502;-78
2021/05/18 08:17:33;;;;;;;3.25;1.45;;;;;;;;;;5051011;28;20033;-80
2021/05/18 08:47:59;;;;;;;2.65;1.10;;;;;;;;;;5058831;28;20041;-76
2021/05/18 09:29:57;;;;;;;5.32;1.33;;;;;;;;;;5055732;28;20104;-77
2021/05/18 10:36:14;;;;;;;6.95;5.00;;;;;;;;;;5053008;28;20530;-76
2021/05/18 10:38:46;;;;;;;8.07;4.50;;;;;;;;;;5045141;28;20064;-76
2021/05/18 10:41:12;;;;;;;8.98;3.88;;;;;;;;;;5052801;28;20392;-76
2021/05/18 10:43:38;;;;;;;8.48;3.85;;;;;;;;;;5052695;28;20067;-79
2021/05/18 10:46:06;;;;;;;7.50;3.20;;;;;;;;;;5036167;28;20116;-80
2021/05/18 10:48:31;;;;;;;6.40;3.38;;;;;;;;;;5052266;28;20103;-79
2021/05/18 10:50:58;;;;;;;6.63;2.83;;;;;;;;;;5051872;28;20499;-78
2021/05/18 10:53:24;;;;;;;5.45;2.90;;;;;;;;;;5052162;28;20103;-78
2021/05/18 10:56:09;;;;;;;5.30;2.70;;;;;;;;;;5035348;28;20033;-78
2021/05/18 10:58:35;;;;;;;8.10;3.38;;;;;;;;;;5035665;28;20515;-77
2021/05/18 11:01:03;;;;;;;4.82;2.47;;;;;;;;;;5070241;28;20043;-77
2021/05/18 11:03:28;;;;;;;4.25;2.30;;;;;;;;;;5068033;28;20037;-77
2021/05/18 11:05:54;;;;;;;4.15;2.17;;;;;;;;;;5068460;28;20064;-77
2021/05/18 11:08:20;;;;;;;3.63;1.60;;;;;;;;;;5051112;28;20407;-76
2021/05/18 11:10:46;;;;;;;5.45;2.00;;;;;;;;;;5051705;28;20048;-76
2021/05/18 11:13:12;;;;;;;6.68;2.10;;;;;;;;;;5035668;28;20037;-76
2021/05/18 11:15:37;;;;;;;5.60;1.65;;;;;;;;;;5052163;28;20048;-76
2021/05/18 11:18:06;;;;;;;4.63;1.83;;;;;;;;;;5034940;28;20032;-76
2021/05/18 11:26:04;;;;;;;3.60;1.60;;;;;;;;;;5066113;28;20079;-76
2021/05/18 11:28:43;;;;;;;5.78;2.50;;;;;;;;;;5067540;28;20029;-76
2021/05/18 11:31:11;;;;;;;6.90;2.28;;;;;;;;;;5050087;28;20049;-76
2021/05/18 11:33:38;;;;;;;4.03;1.75;;;;;;;;;;5042812;28;20445;-76
2021/05/18 11:36:11;;;;;;;4.05;1.67;;;;;;;;;;5070025;28;20041;-76
2021/05/18 11:38:41;;;;;;;7.47;2.00;;;;;;;;;;5051525;28;20089;-77
2021/05/18 11:41:07;;;;;;;5.63;2.85;;;;;;;;;;5051458;28;20075;-76
2021/05/18 11:43:40;;;;;;;9.60;3.33;;;;;;;;;;5035037;28;20483;-76
2021/05/18 11:46:06;;;;;;;6.70;3.85;;;;;;;;;;5035122;28;20037;-76
2021/05/18 11:48:32;;;;;;;7.35;4.10;;;;;;;;;;5049188;28;20033;-76
2021/05/18 11:51:03;;;;;;;7.05;3.47;;;;;;;;;;5067607;28;20052;-76
2021/05/18 11:53:29;;;;;;;5.28;2.78;;;;;;;;;;5067395;28;20028;-76
2021/05/18 11:55:55;;;;;;;6.07;3.13;;;;;;;;;;5034164;28;20069;-76
2021/05/18 11:58:21;;;;;;;4.82;2.75;;;;;;;;;;5067458;28;20039;-76
2021/05/18 12:00:46;;;;;;;4.10;2.78;;;;;;;;;;5034189;28;20417;-76
2021/05/18 12:03:12;;;;;;;5.25;2.35;;;;;;;;;;5050653;28;20094;-76
2021/05/18 12:05:56;;;;;;;5.20;2.22;;;;;;;;;;5050949;28;20037;-76
2021/05/18 12:08:30;;;;;;;4.57;2.33;;;;;;;;;;5067359;28;20060;-76
2021/05/18 12:11:17;;;;;;;4.68;2.72;;;;;;;;;;5051866;28;20119;-76
2021/05/18 12:13:44;;;;;;;5.38;2.80;;;;;;;;;;5050282;28;20507;-76
2021/05/18 12:16:11;;;;;;;4.95;2.58;;;;;;;;;;5034055;28;20041;-76
2021/05/18 12:18:37;;;;;;;4.75;2.70;;;;;;;;;;5033493;28;20037;-76
2021/05/18 12:21:07;;;;;;;4.55;2.97;;;;;;;;;;5033857;28;20073;-76
2021/05/18 12:23:32;;;;;;;4.60;2.80;;;;;;;;;;5033810;28;20033;-76
2021/05/18 12:26:19;;;;;;;6.88;3.30;;;;;;;;;;5050353;28;20043;-76
2021/05/18 12:28:55;;;;;;;4.65;2.40;;;;;;;;;;5049680;28;20400;-76
2021/05/18 12:31:34;;;;;;;4.28;2.38;;;;;;;;;;5034293;28;20041;-76
2021/05/18 12:34:00;;;;;;;4.25;2.55;;;;;;;;;;5049209;28;20437;-76
2021/05/18 12:36:27;;;;;;;4.38;2.47;;;;;;;;;;5049233;28;20052;-76
2021/05/18 12:39:11;;;;;;;6.40;2.50;;;;;;;;;;5031632;28;20905;-76
2021/05/18 12:42:06;;;;;;;6.63;4.43;;;;;;;;;;5036083;28;20086;-76
2021/05/18 12:44:33;;;;;;;6.43;4.22;;;;;;;;;;5049477;28;20045;-76
2021/05/18 12:47:08;;;;;;;6.85;4.50;;;;;;;;;;5049785;28;20058;-76
2021/05/18 12:49:35;;;;;;;9.95;4.15;;;;;;;;;;5066213;28;20037;-76
2021/05/18 12:52:11;;;;;;;9.10;3.72;;;;;;;;;;5026722;28;20049;-76
2021/05/18 12:54:53;;;;;;;6.75;3.38;;;;;;;;;;5034529;28;20063;-76
2021/05/18 12:57:21;;;;;;;7.78;3.53;;;;;;;;;;5030291;28;20045;-76
2021/05/18 12:59:55;;;;;;;8.05;2.95;;;;;;;;;;5050827;28;20033;-76
2021/05/18 13:02:28;;;;;;;4.80;2.97;;;;;;;;;;5049521;28;20060;-76
2021/05/18 13:05:17;;;;;;;6.53;2.45;;;;;;;;;;5050486;28;20045;-76
2021/05/18 13:07:43;;;;;;;4.68;2.13;;;;;;;;;;5050126;28;20037;-76
2021/05/18 13:10:26;;;;;;;7.82;3.17;;;;;;;;;;5050124;28;20041;-76
2021/05/18 13:13:02;;;;;;;5.03;2.10;;;;;;;;;;5047138;28;20051;-76
2021/05/18 13:15:27;;;;;;;4.72;1.73;;;;;;;;;;5031169;28;20068;-76
2021/05/18 13:18:00;;;;;;;5.10;1.60;;;;;;;;;;5064220;28;20141;-76
2021/05/18 13:20:34;;;;;;;3.97;1.85;;;;;;;;;;5049318;28;20042;-76
2021/05/18 13:23:01;;;;;;;5.45;2.63;;;;;;;;;;5050065;28;20120;-76
2021/05/18 13:28:11;;;;;;;4.85;1.92;;;;;;;;;;5049901;28;20033;-76
2021/05/18 13:30:37;;;;;;;2.92;1.33;;;;;;;;;;5052220;28;20089;-76
2021/05/18 13:33:04;;;;;;;3.40;1.60;;;;;;;;;;5053981;28;20101;-76
2021/05/18 13:35:30;;;;;;;2.50;1.40;;;;;;;;;;5053862;28;20033;-76
2021/05/18 13:37:57;;;;;;;2.45;1.40;;;;;;;;;;5053869;28;20107;-76
2021/05/18 13:40:24;;;;;;;3.40;1.20;;;;;;;;;;5052740;28;20045;-76
2021/05/18 13:42:51;;;;;;;2.85;1.00;;;;;;;;;;5061414;28;20041;-76
2021/05/18 13:45:17;;;;;;;2.38;0.90;;;;;;;;;;5037567;28;20033;-76
2021/05/18 13:47:42;;;;;;;2.70;1.15;;;;;;;;;;5054029;28;20040;-76
2021/05/18 13:50:08;;;;;;;3.28;1.10;;;;;;;;;;5054063;28;20082;-76
2021/05/18 13:52:33;;;;;;;3.28;1.15;;;;;;;;;;5070182;28;20527;-76
2021/05/18 13:54:59;;;;;;;3.90;1.80;;;;;;;;;;5069317;28;20037;-77
2021/05/18 13:57:25;;;;;;;2.38;0.80;;;;;;;;;;5053362;28;20040;-76
2021/05/18 13:59:50;;;;;;;2.97;1.33;;;;;;;;;;5072096;28;20033;-76
2021/05/18 14:02:17;;;;;;;2.50;0.98;;;;;;;;;;5070256;28;20112;-76
2021/05/18 14:04:42;;;;;;;1.58;0.88;;;;;;;;;;5086767;28;20029;-76
2021/05/18 14:10:01;;;;;;;2.42;0.98;;;;;;;;;;5059598;28;20104;-76
2021/05/18 14:12:26;;;;;;;2.08;0.90;;;;;;;;;;5073292;28;20045;-76
2021/05/18 14:14:51;;;;;;;1.90;0.90;;;;;;;;;;5054485;28;20029;-76
2021/05/18 14:17:17;;;;;;;2.70;0.95;;;;;;;;;;5052938;28;20040;-76
2021/05/18 14:19:42;;;;;;;1.63;0.77;;;;;;;;;;5070824;28;20045;-76
2021/05/18 14:22:08;;;;;;;1.70;0.75;;;;;;;;;;5062558;28;20049;-76
2021/05/18 14:25:07;;;;;;;6.13;1.25;;;;;;;;;;5052715;28;20044;-76
2021/05/18 14:27:24;;;;;;;2.22;1.10;;;;;;;;;;5062513;28;20059;-76
2021/05/18 14:29:52;;;;;;;3.42;0.90;;;;;;;;;;5052818;28;20033;-76
2021/05/18 14:32:17;;;;;;;2.47;0.60;;;;;;;;;;5052801;28;20103;-76
2021/05/18 14:34:43;;;;;;;2.28;0.70;;;;;;;;;;5051988;28;20442;-76
2021/05/18 14:37:08;;;;;;;2.33;0.70;;;;;;;;;;5035992;28;20162;-76
2021/05/18 14:45:04;;;;;;;2.17;1.10;;;;;;;;;;5067034;28;20037;-77
2021/05/18 14:47:47;;;;;;;2.58;0.70;;;;;;;;;;5052601;28;20047;-77
2021/05/18 14:55:41;;;;;;;1.17;0.50;;;;;;;;;;5051949;28;20056;-76
2021/05/18 14:58:06;;;;;;;3.83;1.55;;;;;;;;;;5035418;28;20499;-77
2021/05/18 15:00:32;;;;;;;7.85;4.25;;;;;;;;;;5071118;28;20037;-76
2021/05/18 15:02:57;;;;;;;9.15;3.90;;;;;;;;;;5052433;28;20045;-77
2021/05/18 15:05:25;;;;;;;9.05;4.22;;;;;;;;;;5053032;28;20033;-76
2021/05/18 15:07:50;;;;;;;6.22;2.67;;;;;;;;;;5053009;28;20044;-77
2021/05/18 15:10:15;;;;;;;8.85;3.15;;;;;;;;;;5051824;28;20047;-77
2021/05/18 15:12:41;;;;;;;7.38;3.20;;;;;;;;;;5035422;28;20510;-77
2021/05/18 15:15:07;;;;;;;8.88;3.67;;;;;;;;;;5035597;28;20112;-77
2021/05/18 15:17:32;;;;;;;12.02;3.88;;;;;;;;;;5045405;28;20041;-78
2021/05/18 15:19:59;;;;;;;5.32;2.78;;;;;;;;;;5035434;28;20406;-77
2021/05/18 15:22:27;;;;;;;6.30;2.90;;;;;;;;;;5051848;28;20044;-79
2021/05/18 15:24:53;;;;;;;6.07;2.58;;;;;;;;;;5019267;28;20029;-78
2021/05/18 15:27:18;;;;;;;6.13;2.30;;;;;;;;;;5035234;28;20055;-78
2021/05/18 15:29:43;;;;;;;4.35;2.03;;;;;;;;;;5061924;28;20040;-78
2021/05/18 15:32:09;;;;;;;7.32;2.60;;;;;;;;;;5071647;28;20036;-76
2021/05/18 15:34:35;;;;;;;6.22;2.50;;;;;;;;;;5048805;28;20033;-76
2021/05/18 15:37:00;;;;;;;6.60;2.10;;;;;;;;;;5034311;28;20050;-78
2021/05/18 15:39:27;;;;;;;5.35;2.08;;;;;;;;;;5051484;28;20045;-77
2021/05/18 15:41:53;;;;;;;7.85;2.03;;;;;;;;;;5051614;28;20120;-77
2021/05/18 15:44:18;;;;;;;4.03;1.33;;;;;;;;;;5033973;28;20529;-77
2021/05/18 15:46:44;;;;;;;5.25;1.88;;;;;;;;;;5051380;28;20048;-77
2021/05/18 15:49:10;;;;;;;4.55;2.38;;;;;;;;;;5063237;28;20037;-77
2021/05/18 15:51:35;;;;;;;6.50;2.30;;;;;;;;;;5051241;28;20068;-76
2021/05/18 15:54:01;;;;;;;4.18;2.45;;;;;;;;;;5050807;28;20044;-76
2021/05/18 15:56:26;;;;;;;9.32;2.90;;;;;;;;;;5050469;28;20044;-76
2021/05/18 15:58:51;;;;;;;6.82;2.53;;;;;;;;;;5068159;28;20032;-76
2021/05/18 16:01:17;;;;;;;6.40;2.17;;;;;;;;;;5049663;28;20029;-76
2021/05/18 16:03:43;;;;;;;9.48;3.10;;;;;;;;;;5050871;28;20037;-76
2021/05/18 16:06:08;;;;;;;10.48;3.28;;;;;;;;;;5050770;28;20044;-76
2021/05/18 16:11:02;;;;;;;9.93;2.97;;;;;;;;;;5051327;28;20040;-76
2021/05/18 16:13:27;;;;;;;6.15;2.58;;;;;;;;;;5051250;28;20040;-76
2021/05/18 16:15:56;;;;;;;6.28;2.40;;;;;;;;;;5051209;28;20029;-76
2021/05/18 16:18:21;;;;;;;6.72;2.33;;;;;;;;;;5050657;28;20037;-76
2021/05/18 16:20:47;;;;;;;4.10;2.05;;;;;;;;;;5050702;28;20117;-76
2021/05/18 16:23:12;;;;;;;2.90;1.70;;;;;;;;;;5050555;28;20174;-76
2021/05/18 16:25:38;;;;;;;5.22;1.73;;;;;;;;;;5050834;28;20041;-76
2021/05/18 16:28:03;;;;;;;4.10;2.10;;;;;;;;;;5050549;28;20040;-76
2021/05/18 16:30:29;;;;;;;4.28;1.80;;;;;;;;;;5050329;28;20403;-76
2021/05/18 16:32:54;;;;;;;5.35;1.77;;;;;;;;;;5034729;28;20488;-76
2021/05/18 16:35:20;;;;;;;3.25;1.40;;;;;;;;;;5033739;28;20093;-77
2021/05/18 16:37:45;;;;;;;4.97;1.95;;;;;;;;;;5050214;28;20137;-77
2021/05/18 16:40:11;;;;;;;3.65;1.50;;;;;;;;;;5066676;28;20045;-77
2021/05/18 16:42:37;;;;;;;3.15;1.63;;;;;;;;;;5045472;28;20040;-76
2021/05/18 16:45:04;;;;;;;3.17;1.20;;;;;;;;;;5070489;28;20037;-76
2021/05/18 16:47:29;;;;;;;3.00;1.38;;;;;;;;;;5087010;28;20051;-77
2021/05/18 16:49:55;;;;;;;5.68;1.50;;;;;;;;;;5070284;28;20040;-77
2021/05/18 16:52:20;;;;;;;3.65;1.13;;;;;;;;;;5054744;28;20522;-76
2021/05/18 16:54:45;;;;;;;2.70;1.25;;;;;;;;;;5050417;28;20082;-77
2021/05/18 16:57:11;;;;;;;4.07;1.58;;;;;;;;;;5066540;28;20041;-77
2021/05/18 16:59:36;;;;;;;2.60;1.08;;;;;;;;;;5069014;28;20029;-76
2021/05/18 17:02:02;;;;;;;2.83;1.00;;;;;;;;;;5065255;28;20430;-77
2021/05/18 17:04:27;;;;;;;3.72;1.42;;;;;;;;;;5032509;28;20052;-76
2021/05/18 17:06:54;;;;;;;2.90;1.33;;;;;;;;;;5033475;28;20048;-76
2021/05/18 17:09:20;;;;;;;3.55;1.40;;;;;;;;;;5049637;28;20049;-76
2021/05/18 17:11:45;;;;;;;4.45;1.88;;;;;;;;;;5032124;28;20186;-76
2021/05/18 17:14:11;;;;;;;5.75;1.60;;;;;;;;;;5015697;28;20496;-76
2021/05/18 17:16:36;;;;;;;5.30;1.83;;;;;;;;;;5033064;28;20047;-76
2021/05/18 17:19:02;;;;;;;3.85;2.30;;;;;;;;;;5049780;28;20029;-77
2021/05/18 17:21:29;;;;;;;3.38;2.47;;;;;;;;;;5049875;28;20025;-76
2021/05/18 17:23:54;;;;;;;10.02;3.92;;;;;;;;;;5048830;28;20039;-76
2021/05/18 17:26:20;;;;;;;5.93;2.42;;;;;;;;;;5032847;28;20411;-76
2021/05/18 17:28:45;;;;;;;5.68;2.40;;;;;;;;;;5032619;28;20032;-76
2021/05/18 17:31:12;;;;;;;5.47;2.92;;;;;;;;;;5049886;28;20052;-76
2021/05/18 17:33:37;;;;;;;7.43;3.78;;;;;;;;;;5033722;28;20029;-76
2021/05/18 17:36:03;;;;;;;7.78;5.25;;;;;;;;;;5049839;28;20115;-77
2021/05/18 17:38:29;;;;;;;8.25;5.30;;;;;;;;;;5049837;28;20053;-76
2021/05/18 17:40:54;;;;;;;8.40;5.22;;;;;;;;;;5031160;28;20098;-76
2021/05/18 17:43:19;;;;;;;10.70;4.78;;;;;;;;;;5066650;28;20045;-76
2021/05/18 17:45:45;;;;;;;6.63;3.90;;;;;;;;;;5065261;28;20037;-76
2021/05/18 17:48:11;;;;;;;7.40;3.85;;;;;;;;;;5047286;28;20033;-76
2021/05/18 17:50:36;;;;;;;6.50;3.20;;;;;;;;;;5082238;28;20056;-76
2021/05/18 17:53:02;;;;;;;5.85;3.35;;;;;;;;;;5048831;28;20513;-76
2021/05/18 17:55:27;;;;;;;5.30;2.88;;;;;;;;;;5048980;28;20041;-76
2021/05/18 17:57:53;;;;;;;5.28;2.30;;;;;;;;;;5049625;28;20041;-76
2021/05/18 18:00:19;;;;;;;7.00;1.92;;;;;;;;;;5034672;28;20041;-76
2021/05/18 18:02:44;;;;;;;4.22;2.10;;;;;;;;;;5050597;28;20071;-76
2021/05/18 18:05:10;;;;;;;3.88;1.75;;;;;;;;;;5033292;28;20110;-76
2021/05/18 18:07:35;;;;;;;2.72;1.50;;;;;;;;;;5032737;28;20041;-76
2021/05/18 18:10:02;;;;;;;4.55;1.60;;;;;;;;;;5049538;28;20048;-76
2021/05/18 18:12:28;;;;;;;4.72;1.25;;;;;;;;;;5049124;28;20029;-76
2021/05/18 18:14:53;;;;;;;2.88;1.40;;;;;;;;;;5083372;28;20041;-77
2021/05/18 18:17:22;;;;;;;3.20;1.20;;;;;;;;;;5085385;28;20048;-76
2021/05/18 18:19:47;;;;;;;2.95;1.20;;;;;;;;;;5053143;28;20068;-76
2021/05/18 18:22:13;;;;;;;2.33;0.90;;;;;;;;;;5028458;28;20033;-76
2021/05/18 18:24:39;;;;;;;3.75;1.55;;;;;;;;;;5066307;28;20508;-76
2021/05/18 18:27:05;;;;;;;1.70;0.75;;;;;;;;;;5032713;28;20405;-76
2021/05/18 18:29:31;;;;;;;4.68;1.10;;;;;;;;;;5073495;28;20384;-76
2021/05/18 18:31:56;;;;;;;4.65;1.50;;;;;;;;;;5036373;28;20082;-76
2021/05/18 18:34:22;;;;;;;2.00;0.95;;;;;;;;;;5053380;28;20052;-76
2021/05/18 18:36:48;;;;;;;3.65;1.25;;;;;;;;;;5052709;28;20033;-75
2021/05/18 18:39:16;;;;;;;2.45;1.20;;;;;;;;;;5054129;28;20491;-76
2021/05/18 18:41:41;;;;;;;3.75;1.30;;;;;;;;;;5036496;28;20036;-76
2021/05/18 18:44:07;;;;;;;6.38;3.22;;;;;;;;;;5035932;28;20056;-76
2021/05/18 18:46:33;;;;;;;10.85;7.95;;;;;;;;;;5052133;28;20772;-77
2021/05/18 18:48:58;;;;;;;9.23;5.30;;;;;;;;;;5052888;28;20037;-77
2021/05/18 18:51:30;;;;;;;4.70;2.90;;;;;;;;;;5036415;28;20048;-76
2021/05/18 18:53:56;;;;;;;3.92;2.10;;;;;;;;;;5036986;28;20064;-77
2021/05/18 18:56:22;;;;;;;5.18;2.45;;;;;;;;;;5053567;28;20276;-77
2021/05/18 18:58:47;;;;;;;4.55;1.83;;;;;;;;;;5054823;28;20055;-77
2021/05/18 19:01:14;;;;;;;3.90;2.00;;;;;;;;;;5068769;28;20045;-76
2021/05/18 19:03:52;;;;;;;4.15;1.55;;;;;;;;;;5069231;28;20060;-76
2021/05/18 19:06:29;;;;;;;5.00;1.77;;;;;;;;;;5052115;28;20112;-76
2021/05/18 19:13:59;;;;;;;3.53;1.42;;;;;;;;;;5036662;28;20060;-76
2021/05/18 19:16:25;;;;;;;3.80;1.63;;;;;;;;;;5034907;28;20506;-76
2021/05/18 19:18:51;;;;;;;4.60;2.05;;;;;;;;;;5035681;28;20445;-76
2021/05/18 19:21:16;;;;;;;4.13;1.75;;;;;;;;;;5052117;28;20047;-76
2021/05/18 19:23:42;;;;;;;2.75;1.50;;;;;;;;;;5068538;28;20091;-76
2021/05/18 19:26:10;;;;;;;3.85;2.20;;;;;;;;;;5052004;28;20115;-76
2021/05/18 19:28:36;;;;;;;5.40;2.33;;;;;;;;;;5051741;28;20033;-76
2021/05/18 19:31:01;;;;;;;7.82;3.08;;;;;;;;;;5068149;28;20043;-76
2021/05/18 19:33:27;;;;;;;6.88;2.67;;;;;;;;;;5035428;28;20056;-76
2021/05/18 19:44:20;;;;;;;6.30;2.55;;;;;;;;;;5067736;28;20044;-76
2021/05/18 19:51:55;;;;;;;5.15;2.20;;;;;;;;;;5068308;28;20039;-76
2021/05/18 19:54:39;;;;;;;5.47;2.38;;;;;;;;;;5052043;28;20045;-76
2021/05/18 19:57:27;;;;;;;3.38;1.83;;;;;;;;;;5051196;28;20549;-76
2021/05/18 20:21:54;;;;;;;6.82;3.33;;;;;;;;;;5064834;28;20029;-77
2021/05/18 20:24:20;;;;;;;5.90;3.45;;;;;;;;;;5051411;28;20041;-76
2021/05/18 20:26:45;;;;;;;4.25;2.35;;;;;;;;;;5050907;28;20051;-77
2021/05/18 20:29:11;;;;;;;4.95;3.17;;;;;;;;;;5050356;28;20365;-77
2021/05/18 20:31:38;;;;;;;5.03;2.20;;;;;;;;;;5014061;28;20034;-77
2021/05/18 20:34:11;;;;;;;3.40;1.80;;;;;;;;;;5055986;28;20033;-77
2021/05/18 20:39:24;;;;;;;3.92;2.08;;;;;;;;;;5046880;28;20025;-77
2021/05/18 20:41:49;;;;;;;4.28;1.80;;;;;;;;;;5032457;28;20763;-78
2021/05/18 20:44:15;;;;;;;4.43;1.73;;;;;;;;;;5043336;28;20089;-78
2021/05/18 20:46:40;;;;;;;4.07;1.70;;;;;;;;;;5029904;28;20423;-78
2021/05/18 20:49:06;;;;;;;3.22;1.48;;;;;;;;;;5065968;28;20029;-77
2021/05/18 20:51:33;;;;;;;3.03;1.50;;;;;;;;;;5049049;28;20040;-77
2021/05/18 20:53:58;;;;;;;3.90;1.20;;;;;;;;;;5029718;28;20037;-77